Time;durP1;ratioP1;P1;durP2;ratioP2;P2;SDS_P1;SDS_P2;PMS_P1;PMS_P2;Temp;Humidity;BMP_temperature;BMP_pressure;BME280_temperature;BME280_humidity;BME280_pressure;Samples;Min_cycle;Max_cycle;Signal;HPM_P1;HPM_P2
2022/12/29 00:00:00;;;;;;;1.50;1.30;;;12.10;99.90;;;;;;4955896;28;35862;-81
2022/12/29 00:02:26;;;;;;;3.27;1.70;;;12.10;99.90;;;;;;4929071;28;37730;-80
2022/12/29 00:04:52;;;;;;;3.58;1.75;;;12.10;99.90;;;;;;4942738;28;38804;-80
2022/12/29 00:07:19;;;;;;;3.30;1.40;;;12.10;99.90;;;;;;4927381;28;37493;-80
2022/12/29 00:09:45;;;;;;;3.40;1.50;;;12.10;99.90;;;;;;4926212;28;36579;-80
2022/12/29 00:12:11;;;;;;;3.92;1.80;;;12.10;99.90;;;;;;4927338;28;38647;-80
2022/12/29 00:17:22;;;;;;;3.50;1.73;;;12.10;99.90;;;;;;4946513;28;38435;-80
2022/12/29 00:36:36;;;;;;;3.55;1.50;;;12.00;99.90;;;;;;4944067;28;38854;-80
2022/12/29 00:44:36;;;;;;;3.27;1.97;;;11.80;99.90;;;;;;4951392;28;48750;-82
2022/12/29 00:47:04;;;;;;;5.50;2.10;;;11.70;99.90;;;;;;4949356;28;38034;-80
2022/12/29 00:49:30;;;;;;;4.40;1.70;;;11.60;99.90;;;;;;4950478;28;38060;-83
2022/12/29 00:52:08;;;;;;;6.53;2.60;;;11.60;99.90;;;;;;4951484;28;37355;-81
2022/12/29 00:54:36;;;;;;;4.97;1.63;;;11.50;99.90;;;;;;4950483;28;49071;-82
2022/12/29 00:57:04;;;;;;;5.07;1.83;;;11.50;99.90;;;;;;4933497;28;37208;-79
2022/12/29 00:59:30;;;;;;;4.93;1.83;;;11.50;99.90;;;;;;4947409;28;38334;-80
2022/12/29 01:01:57;;;;;;;5.80;2.40;;;11.40;99.90;;;;;;4948398;28;36450;-80
2022/12/29 01:04:25;;;;;;;4.37;2.90;;;11.40;99.90;;;;;;4949859;28;38746;-80
2022/12/29 01:06:52;;;;;;;4.40;2.30;;;11.30;99.90;;;;;;4951196;28;38096;-80
2022/12/29 01:12:04;;;;;;;12.77;3.00;;;11.40;99.90;;;;;;4946115;28;36434;-80
2022/12/29 01:14:30;;;;;;;3.70;2.07;;;11.40;99.90;;;;;;4944930;28;39148;-79
2022/12/29 01:16:57;;;;;;;5.00;2.57;;;11.40;99.90;;;;;;4942339;28;39177;-80
2022/12/29 01:19:24;;;;;;;6.37;2.43;;;11.40;99.90;;;;;;4944340;28;37165;-81
2022/12/29 01:21:50;;;;;;;4.67;2.30;;;11.40;99.90;;;;;;4936432;28;36794;-81
2022/12/29 01:24:18;;;;;;;4.10;2.77;;;11.40;99.90;;;;;;4941606;28;38066;-81
2022/12/29 01:26:44;;;;;;;8.00;2.87;;;11.40;99.90;;;;;;4931007;28;36957;-81
2022/12/29 01:29:11;;;;;;;5.53;2.40;;;11.30;99.90;;;;;;4932203;28;36818;-80
2022/12/29 01:31:37;;;;;;;3.77;2.43;;;11.30;99.90;;;;;;4944615;28;35759;-80
2022/12/29 01:34:04;;;;;;;7.07;2.20;;;11.30;99.90;;;;;;4942183;28;38913;-80
2022/12/29 01:36:30;;;;;;;5.63;1.50;;;11.20;99.90;;;;;;4941577;28;37908;-80
2022/12/29 01:38:56;;;;;;;5.13;1.67;;;11.20;99.90;;;;;;4925374;28;34981;-80
2022/12/29 01:41:23;;;;;;;4.37;1.40;;;11.20;99.90;;;;;;4941827;28;37359;-80
2022/12/29 01:43:59;;;;;;;5.63;1.00;;;11.20;99.90;;;;;;4941326;28;39968;-80
2022/12/29 01:46:30;;;;;;;2.83;1.17;;;11.20;99.90;;;;;;4931355;28;38244;-79
2022/12/29 01:49:10;;;;;;;7.93;1.53;;;11.20;99.90;;;;;;4947673;28;38825;-80
2022/12/29 01:51:42;;;;;;;5.90;1.30;;;11.20;99.90;;;;;;4948323;28;49068;-79
2022/12/29 01:54:24;;;;;;;5.88;1.20;;;11.20;99.90;;;;;;4931379;28;38367;-80
2022/12/29 01:56:52;;;;;;;7.47;1.43;;;11.10;99.90;;;;;;4930012;28;37134;-80
2022/12/29 01:59:22;;;;;;;8.37;1.37;;;11.10;99.90;;;;;;4947734;28;38504;-80
2022/12/29 02:01:49;;;;;;;4.73;1.17;;;11.20;99.90;;;;;;5408083;23;36024;-75
2022/12/29 02:04:15;;;;;;;5.87;1.07;;;11.20;99.90;;;;;;4924466;28;38572;-76
2022/12/29 02:06:48;;;;;;;4.40;0.97;;;11.20;99.90;;;;;;4943680;28;38124;-76
2022/12/29 02:09:14;;;;;;;4.40;0.90;;;11.30;99.90;;;;;;4928141;28;36475;-76
2022/12/29 02:11:40;;;;;;;7.03;1.50;;;11.30;99.90;;;;;;4943140;28;37298;-76
2022/12/29 02:14:10;;;;;;;8.50;2.73;;;11.30;99.90;;;;;;4928168;28;39246;-76
2022/12/29 02:16:45;;;;;;;13.77;5.70;;;11.20;99.90;;;;;;4948309;28;38277;-75
2022/12/29 02:19:48;;;;;;;19.83;9.00;;;11.20;99.90;;;;;;4928171;28;36874;-76
2022/12/29 02:22:25;;;;;;;17.97;9.17;;;11.20;99.90;;;;;;4944099;28;38307;-76
2022/12/29 02:25:20;;;;;;;25.33;9.33;;;11.20;99.90;;;;;;4946697;28;39203;-76
2022/12/29 02:28:01;;;;;;;17.03;7.13;;;11.20;99.90;;;;;;4947503;28;46750;-75
2022/12/29 02:30:33;;;;;;;15.57;4.37;;;11.30;99.90;;;;;;4932283;28;37586;-76
2022/12/29 02:33:06;;;;;;;11.20;4.28;;;11.40;99.90;;;;;;4935238;28;36030;-76
2022/12/29 02:35:45;;;;;;;10.80;2.97;;;11.40;99.90;;;;;;4933011;28;47050;-75
2022/12/29 02:38:50;;;;;;;13.30;2.73;;;11.20;99.90;;;;;;4951487;28;38458;-76
2022/12/29 02:41:36;;;;;;;6.13;1.60;;;11.20;99.90;;;;;;4954262;28;37679;-76
2022/12/29 02:44:21;;;;;;;13.70;1.80;;;11.20;99.90;;;;;;4934762;28;37375;-76
2022/12/29 02:47:04;;;;;;;5.87;1.23;;;11.10;99.90;;;;;;4939751;28;36306;-77
2022/12/29 02:49:32;;;;;;;8.97;1.47;;;11.00;99.90;;;;;;4935698;28;47185;-76
2022/12/29 02:52:01;;;;;;;8.90;1.30;;;11.10;99.90;;;;;;4939545;28;37007;-75
2022/12/29 02:54:43;;;;;;;6.97;1.20;;;11.10;99.90;;;;;;4933548;28;47103;-76
2022/12/29 02:57:22;;;;;;;11.30;1.42;;;11.10;99.90;;;;;;4949976;28;38882;-76
2022/12/29 03:00:03;;;;;;;10.83;1.60;;;11.10;99.90;;;;;;4952819;28;39469;-75
2022/12/29 03:03:04;;;;;;;10.48;1.63;;;11.10;99.90;;;;;;4886739;28;1158545;-76
2022/12/29 03:05:41;;;;;;;8.80;1.57;;;11.10;99.90;;;;;;4932638;28;47054;-76
2022/12/29 03:08:19;;;;;;;10.43;1.43;;;11.20;99.90;;;;;;4928154;28;37947;-76
2022/12/29 03:12:07;;;;;;;7.03;1.20;;;11.10;99.90;;;;;;4930553;28;38159;-76
2022/12/29 03:17:12;;;;;;;10.07;1.40;;;11.10;99.90;;;;;;4944953;28;49504;-75
2022/12/29 03:19:46;;;;;;;10.07;1.60;;;11.00;99.90;;;;;;4928026;28;46967;-76
2022/12/29 03:22:27;;;;;;;5.00;1.30;;;11.00;99.90;;;;;;4931793;28;37284;-75
2022/12/29 03:25:03;;;;;;;6.47;1.27;;;11.10;99.90;;;;;;4924741;28;38251;-75
2022/12/29 03:27:36;;;;;;;6.07;1.57;;;11.00;99.90;;;;;;4925218;28;36318;-76
2022/12/29 03:30:05;;;;;;;8.03;1.10;;;11.00;99.90;;;;;;4943092;28;39702;-76
2022/12/29 03:32:51;;;;;;;6.93;1.20;;;11.10;99.90;;;;;;4929650;28;47195;-75
2022/12/29 03:35:21;;;;;;;10.07;1.67;;;11.20;99.90;;;;;;4942763;28;37961;-75
2022/12/29 03:37:59;;;;;;;10.33;1.13;;;11.20;99.90;;;;;;4934798;28;36785;-76
2022/12/29 03:40:28;;;;;;;5.57;1.13;;;11.30;99.90;;;;;;4929716;28;38689;-76
2022/12/29 03:42:55;;;;;;;10.80;1.67;;;11.30;99.90;;;;;;4934409;28;39292;-75
2022/12/29 03:45:21;;;;;;;6.07;1.40;;;11.30;99.90;;;;;;4951141;28;38234;-76
2022/12/29 03:47:47;;;;;;;14.10;3.30;;;11.30;99.90;;;;;;4950117;28;37512;-75
2022/12/29 03:50:14;;;;;;;9.83;1.80;;;11.30;99.90;;;;;;4933247;28;37640;-75
2022/12/29 03:52:40;;;;;;;11.60;2.13;;;11.30;99.90;;;;;;4932951;28;38350;-75
2022/12/29 03:55:07;;;;;;;16.00;3.13;;;11.30;99.90;;;;;;4934417;28;38751;-75
2022/12/29 03:57:33;;;;;;;9.70;1.47;;;11.30;99.90;;;;;;4936447;28;36192;-76
2022/12/29 03:59:59;;;;;;;13.70;2.23;;;11.30;99.90;;;;;;4947128;28;40108;-76
2022/12/29 04:02:25;;;;;;;11.10;1.70;;;11.20;99.90;;;;;;4931859;28;37548;-76
2022/12/29 04:04:51;;;;;;;11.17;2.20;;;11.10;99.90;;;;;;4950034;28;37868;-75
2022/12/29 04:07:17;;;;;;;10.30;2.03;;;11.00;99.90;;;;;;4951611;28;36975;-76
2022/12/29 04:09:43;;;;;;;18.90;2.70;;;10.90;99.90;;;;;;4943959;28;39732;-75
2022/12/29 04:12:09;;;;;;;10.17;2.07;;;10.80;99.90;;;;;;4930870;28;38497;-75
2022/12/29 04:14:35;;;;;;;18.33;2.57;;;10.70;99.90;;;;;;4931703;28;36807;-76
2022/12/29 04:17:01;;;;;;;13.43;2.23;;;10.50;99.90;;;;;;4950804;28;37097;-75
2022/12/29 04:19:27;;;;;;;17.53;2.50;;;10.30;99.90;;;;;;4931809;28;39547;-76
2022/12/29 04:21:53;;;;;;;12.57;2.23;;;10.20;99.90;;;;;;4931312;28;37213;-75
2022/12/29 04:24:19;;;;;;;14.73;2.37;;;10.10;99.90;;;;;;4930216;28;36932;-75
2022/12/29 04:26:45;;;;;;;11.23;2.60;;;10.10;99.90;;;;;;4948918;28;36969;-75
2022/12/29 04:29:11;;;;;;;14.73;3.47;;;10.20;99.90;;;;;;4942976;28;38882;-75
2022/12/29 04:31:37;;;;;;;16.80;2.80;;;10.20;99.90;;;;;;4946230;28;39415;-75
2022/12/29 04:34:04;;;;;;;12.17;2.50;;;10.20;99.90;;;;;;4930336;28;35653;-75
2022/12/29 04:36:30;;;;;;;19.57;3.00;;;10.30;99.90;;;;;;4929623;28;36285;-75
2022/12/29 04:38:59;;;;;;;19.03;2.40;;;10.30;99.90;;;;;;4944300;28;38362;-75
2022/12/29 04:41:25;;;;;;;14.27;2.23;;;10.40;99.90;;;;;;4941968;28;39446;-75
2022/12/29 04:43:51;;;;;;;16.60;2.30;;;10.50;99.90;;;;;;4927643;28;37451;-75
2022/12/29 04:46:17;;;;;;;21.23;1.93;;;10.50;99.90;;;;;;4931408;28;36664;-75
2022/12/29 04:48:43;;;;;;;14.50;2.40;;;10.50;99.90;;;;;;4938806;28;37755;-75
2022/12/29 04:51:09;;;;;;;14.70;2.93;;;10.60;99.90;;;;;;4943090;28;38101;-75
2022/12/29 04:53:35;;;;;;;15.80;2.63;;;10.50;99.90;;;;;;4948981;28;37811;-75
2022/12/29 04:56:02;;;;;;;17.57;2.33;;;10.50;99.90;;;;;;4929071;28;37750;-76
2022/12/29 04:58:28;;;;;;;16.43;2.67;;;10.50;99.90;;;;;;4948427;28;49088;-76
2022/12/29 05:00:54;;;;;;;14.43;2.67;;;10.50;99.90;;;;;;4930795;28;37508;-76
2022/12/29 05:03:20;;;;;;;16.90;2.43;;;10.50;99.90;;;;;;4936034;28;37023;-75
2022/12/29 05:05:46;;;;;;;16.73;2.00;;;10.50;99.90;;;;;;4947276;28;36743;-76
2022/12/29 05:08:12;;;;;;;18.03;2.30;;;10.50;99.90;;;;;;4928700;28;37747;-76
2022/12/29 05:10:38;;;;;;;18.83;3.40;;;10.50;99.90;;;;;;4953241;28;39193;-77
2022/12/29 05:13:04;;;;;;;17.03;2.80;;;10.40;99.90;;;;;;4929120;28;38257;-76
2022/12/29 05:15:30;;;;;;;15.03;2.13;;;10.50;99.90;;;;;;4942505;28;37991;-75
2022/12/29 05:17:56;;;;;;;11.87;2.13;;;10.60;99.90;;;;;;4939746;28;38467;-76
2022/12/29 05:20:22;;;;;;;18.27;2.63;;;10.60;99.90;;;;;;4941831;28;39129;-76
2022/12/29 05:22:49;;;;;;;19.00;2.50;;;10.60;99.90;;;;;;4931524;28;37786;-76
2022/12/29 05:25:15;;;;;;;18.33;2.83;;;10.50;99.90;;;;;;4940595;28;37328;-76
2022/12/29 05:27:41;;;;;;;18.83;2.93;;;10.50;99.90;;;;;;4927013;28;35970;-78
2022/12/29 05:30:08;;;;;;;16.07;2.50;;;10.60;99.90;;;;;;4943096;28;38481;-75
2022/12/29 05:32:34;;;;;;;19.40;3.20;;;10.50;99.90;;;;;;4925058;28;38121;-75
2022/12/29 05:35:01;;;;;;;27.50;3.40;;;10.50;99.90;;;;;;4920205;28;37657;-75
2022/12/29 05:37:27;;;;;;;23.27;3.90;;;10.40;99.90;;;;;;4923984;28;37970;-76
2022/12/29 05:39:53;;;;;;;24.20;3.17;;;10.40;99.90;;;;;;4940906;28;38160;-76
2022/12/29 05:42:19;;;;;;;18.37;2.93;;;10.30;99.90;;;;;;4945620;28;39128;-75
2022/12/29 05:44:45;;;;;;;26.23;3.70;;;10.40;99.90;;;;;;4924544;28;37709;-75
2022/12/29 05:47:11;;;;;;;14.83;2.63;;;10.40;99.90;;;;;;4939585;28;38388;-76
2022/12/29 05:49:37;;;;;;;22.53;2.97;;;10.40;99.90;;;;;;4923130;28;37633;-76
2022/12/29 05:52:03;;;;;;;21.73;3.70;;;10.40;99.90;;;;;;4930487;28;37220;-75
2022/12/29 05:54:29;;;;;;;24.10;3.07;;;10.40;99.90;;;;;;4934390;28;36119;-75
2022/12/29 05:56:55;;;;;;;21.70;3.17;;;10.40;99.90;;;;;;4946737;28;38708;-75
2022/12/29 05:59:21;;;;;;;20.37;3.13;;;10.30;99.90;;;;;;4930756;28;36900;-74
2022/12/29 06:01:47;;;;;;;19.27;4.17;;;10.30;99.90;;;;;;4943079;28;37781;-75
2022/12/29 06:04:14;;;;;;;24.90;3.17;;;10.20;99.90;;;;;;4941268;28;36967;-75
2022/12/29 06:06:41;;;;;;;23.93;3.00;;;10.20;99.90;;;;;;4924761;28;39035;-74
2022/12/29 06:09:10;;;;;;;20.90;3.00;;;10.10;99.90;;;;;;4931023;28;38537;-75
2022/12/29 06:11:36;;;;;;;19.10;3.13;;;10.20;99.90;;;;;;4945213;28;37825;-75
2022/12/29 06:14:02;;;;;;;18.60;2.93;;;10.20;99.90;;;;;;4927213;28;37491;-74
2022/12/29 06:16:28;;;;;;;12.30;3.30;;;10.20;99.90;;;;;;4935259;28;46864;-74
2022/12/29 06:18:54;;;;;;;18.80;2.77;;;10.20;99.90;;;;;;4943389;28;39076;-74
2022/12/29 06:21:20;;;;;;;19.67;3.97;;;10.20;99.90;;;;;;4943138;28;38146;-74
2022/12/29 06:23:46;;;;;;;22.10;3.03;;;10.30;99.90;;;;;;4927230;28;36244;-75
2022/12/29 06:26:12;;;;;;;22.70;3.27;;;10.30;99.90;;;;;;4924793;28;39503;-74
2022/12/29 06:28:38;;;;;;;16.13;2.10;;;10.30;99.90;;;;;;4944449;28;38659;-75
2022/12/29 06:31:04;;;;;;;10.70;2.43;;;10.40;99.90;;;;;;4944596;28;39067;-75
2022/12/29 06:33:30;;;;;;;17.57;3.43;;;10.30;99.90;;;;;;4943086;28;36983;-74
2022/12/29 06:35:56;;;;;;;12.93;1.97;;;10.20;99.90;;;;;;4928458;28;39328;-75
2022/12/29 06:38:23;;;;;;;14.90;2.87;;;10.00;99.90;;;;;;4926623;28;37525;-75
2022/12/29 06:40:49;;;;;;;14.67;2.63;;;10.00;99.90;;;;;;4927129;28;37588;-74
2022/12/29 06:43:15;;;;;;;13.07;2.23;;;9.90;99.90;;;;;;4927511;28;36342;-75
2022/12/29 06:45:42;;;;;;;16.83;2.40;;;9.70;99.90;;;;;;4953150;28;39774;-75
2022/12/29 06:48:08;;;;;;;16.27;2.47;;;9.70;99.90;;;;;;4929885;28;37819;-76
2022/12/29 06:50:35;;;;;;;15.03;3.00;;;9.60;99.90;;;;;;4926430;28;38417;-75
2022/12/29 06:53:01;;;;;;;16.83;3.33;;;9.60;99.90;;;;;;4927367;28;35854;-75
2022/12/29 06:55:28;;;;;;;18.37;3.07;;;9.60;99.90;;;;;;4950645;28;39837;-75
2022/12/29 06:57:56;;;;;;;25.90;3.83;;;9.60;99.90;;;;;;4944140;28;39339;-74
2022/12/29 07:00:22;;;;;;;16.50;3.10;;;9.60;99.90;;;;;;4923831;28;39548;-75
2022/12/29 07:02:48;;;;;;;19.90;3.87;;;9.60;99.90;;;;;;4923670;28;36078;-75
2022/12/29 07:05:15;;;;;;;18.43;2.50;;;9.60;99.90;;;;;;4925433;28;37871;-74
2022/12/29 07:07:41;;;;;;;17.83;3.67;;;9.70;99.90;;;;;;4955107;28;37033;-74
2022/12/29 07:10:07;;;;;;;18.40;2.87;;;9.80;99.90;;;;;;4932607;28;38083;-74
2022/12/29 07:12:33;;;;;;;20.83;2.83;;;9.90;99.90;;;;;;4949826;28;37971;-74
2022/12/29 07:14:59;;;;;;;20.13;2.90;;;9.90;99.90;;;;;;4945785;28;38207;-74
2022/12/29 07:17:25;;;;;;;15.70;2.70;;;10.00;99.90;;;;;;4945979;28;38484;-74
2022/12/29 07:19:51;;;;;;;21.30;2.70;;;10.10;99.90;;;;;;4926849;28;37129;-74
2022/12/29 07:22:17;;;;;;;15.03;2.50;;;10.10;99.90;;;;;;4941575;28;37164;-75
2022/12/29 07:24:43;;;;;;;18.60;2.90;;;10.10;99.90;;;;;;4932956;28;37873;-74
2022/12/29 07:27:09;;;;;;;21.07;3.30;;;10.10;99.90;;;;;;4943042;28;38163;-73
2022/12/29 07:29:38;;;;;;;35.07;3.60;;;10.10;99.90;;;;;;4932307;28;36977;-74
2022/12/29 07:32:05;;;;;;;15.87;3.17;;;10.20;99.90;;;;;;4927351;28;36263;-75
2022/12/29 07:34:31;;;;;;;21.23;3.13;;;10.10;99.90;;;;;;4924364;28;39288;-74
2022/12/29 07:36:57;;;;;;;18.20;3.43;;;10.20;99.90;;;;;;4939930;28;39821;-74
2022/12/29 07:39:23;;;;;;;23.97;3.93;;;10.30;99.90;;;;;;4931471;28;37036;-74
2022/12/29 07:41:49;;;;;;;16.73;2.63;;;10.30;99.90;;;;;;4925493;28;36259;-75
2022/12/29 07:44:15;;;;;;;19.40;3.40;;;10.30;99.90;;;;;;4917130;28;38027;-75
2022/12/29 07:46:41;;;;;;;15.43;3.13;;;10.40;99.90;;;;;;4938444;28;37899;-75
2022/12/29 07:49:07;;;;;;;19.47;2.90;;;10.40;99.90;;;;;;4919615;28;37098;-75
2022/12/29 07:51:33;;;;;;;16.27;3.07;;;10.50;99.90;;;;;;4938602;28;37998;-74
2022/12/29 07:54:00;;;;;;;18.70;3.40;;;10.60;99.90;;;;;;4927550;28;38054;-75
2022/12/29 07:56:29;;;;;;;18.73;3.83;;;10.70;99.90;;;;;;4926618;28;37443;-75
2022/12/29 07:58:55;;;;;;;20.93;3.50;;;10.60;99.90;;;;;;4927760;28;37616;-74
2022/12/29 08:01:23;;;;;;;23.50;3.90;;;10.60;99.90;;;;;;4948862;28;37510;-74
2022/12/29 08:03:49;;;;;;;18.73;4.10;;;10.60;99.90;;;;;;4941513;28;39874;-74
2022/12/29 08:06:15;;;;;;;22.30;3.20;;;10.50;99.90;;;;;;4928317;28;38675;-74
2022/12/29 08:08:41;;;;;;;18.90;2.90;;;10.50;99.90;;;;;;4945419;28;39057;-75
2022/12/29 08:11:07;;;;;;;16.83;2.63;;;10.60;99.90;;;;;;4928178;28;37344;-74
2022/12/29 08:13:33;;;;;;;21.07;3.50;;;10.60;99.90;;;;;;4923037;28;39413;-74
2022/12/29 08:15:59;;;;;;;22.40;4.17;;;10.60;99.90;;;;;;4931929;28;38756;-74
2022/12/29 08:18:26;;;;;;;19.00;3.10;;;10.50;99.90;;;;;;4939125;28;37506;-75
2022/12/29 08:20:52;;;;;;;17.57;3.40;;;10.50;99.90;;;;;;4936158;28;36203;-74
2022/12/29 08:23:18;;;;;;;19.93;3.23;;;10.50;99.90;;;;;;4944761;28;38814;-75
2022/12/29 08:25:44;;;;;;;18.50;3.17;;;10.40;99.90;;;;;;4928332;28;37060;-75
2022/12/29 08:28:10;;;;;;;18.30;2.87;;;10.30;99.90;;;;;;4923895;28;38045;-75
2022/12/29 08:30:36;;;;;;;17.63;2.93;;;10.20;99.90;;;;;;4946168;28;38243;-75
2022/12/29 08:33:02;;;;;;;21.10;3.70;;;10.10;99.90;;;;;;4925173;28;38649;-74
2022/12/29 08:35:28;;;;;;;24.93;4.13;;;10.10;99.90;;;;;;4927267;28;36871;-74
2022/12/29 08:37:54;;;;;;;16.90;2.80;;;10.00;99.90;;;;;;4938082;28;36925;-75
2022/12/29 08:40:20;;;;;;;18.80;3.70;;;9.90;99.90;;;;;;4941136;28;36081;-74
2022/12/29 08:42:46;;;;;;;24.43;3.23;;;9.90;99.90;;;;;;4941634;28;39161;-73
2022/12/29 08:45:12;;;;;;;22.13;3.40;;;10.00;99.90;;;;;;4928904;28;37181;-74
2022/12/29 08:47:38;;;;;;;25.03;3.50;;;9.90;99.90;;;;;;4946870;28;37892;-73
2022/12/29 08:50:05;;;;;;;17.70;3.33;;;9.80;99.90;;;;;;4943069;28;37295;-74
2022/12/29 08:52:31;;;;;;;17.40;3.10;;;9.80;99.90;;;;;;4945454;28;48642;-73
2022/12/29 08:54:57;;;;;;;16.87;3.17;;;9.80;99.90;;;;;;4944090;28;39421;-74
2022/12/29 08:57:23;;;;;;;19.70;2.87;;;9.80;99.90;;;;;;4936257;28;38329;-73
2022/12/29 08:59:49;;;;;;;24.47;4.07;;;9.80;99.90;;;;;;4926969;28;36045;-73
2022/12/29 09:02:15;;;;;;;17.73;3.03;;;9.80;99.90;;;;;;4941886;28;38904;-73
2022/12/29 09:04:41;;;;;;;18.80;2.90;;;9.70;99.90;;;;;;4925269;28;38300;-75
2022/12/29 09:07:07;;;;;;;30.53;3.60;;;9.70;99.90;;;;;;4949723;28;37655;-74
2022/12/29 09:09:33;;;;;;;22.73;3.37;;;9.70;99.90;;;;;;4946158;28;38253;-73
2022/12/29 09:12:00;;;;;;;21.47;3.40;;;9.80;99.90;;;;;;4940829;28;38976;-74
2022/12/29 09:14:26;;;;;;;23.50;3.90;;;9.80;99.90;;;;;;4950011;28;39128;-74
2022/12/29 09:19:37;;;;;;;19.33;3.60;;;9.80;99.90;;;;;;4940999;28;50012;-73
2022/12/29 09:22:03;;;;;;;14.37;2.90;;;9.80;99.90;;;;;;4923969;28;38681;-74
2022/12/29 09:24:29;;;;;;;22.23;3.73;;;9.80;99.90;;;;;;4933136;28;38370;-74
2022/12/29 09:26:56;;;;;;;17.37;2.97;;;9.90;99.90;;;;;;4949635;28;38792;-74
2022/12/29 09:29:23;;;;;;;25.97;4.30;;;9.90;99.90;;;;;;4932621;28;37149;-74
2022/12/29 09:31:49;;;;;;;15.90;2.90;;;9.90;99.90;;;;;;4944072;28;39827;-74
2022/12/29 09:34:15;;;;;;;19.00;3.43;;;9.90;99.90;;;;;;4937587;28;38294;-75
2022/12/29 09:36:41;;;;;;;19.00;3.40;;;10.00;99.90;;;;;;4941564;28;38796;-74
2022/12/29 09:39:08;;;;;;;12.87;3.40;;;10.00;99.90;;;;;;4940462;28;37998;-75
2022/12/29 09:42:07;;;;;;;10.23;3.47;;;10.00;99.90;;;;;;4922816;28;37998;-74
2022/12/29 09:44:52;;;;;;;15.80;3.93;;;10.00;99.90;;;;;;4941328;28;48487;-74
2022/12/29 09:47:20;;;;;;;17.90;4.03;;;10.00;99.90;;;;;;4928945;28;37300;-74
2022/12/29 09:50:09;;;;;;;17.07;4.30;;;10.00;99.90;;;;;;4934861;28;39777;-75
2022/12/29 09:52:50;;;;;;;17.10;4.93;;;10.10;99.90;;;;;;4933910;28;48317;-74
2022/12/29 09:55:20;;;;;;;20.30;5.07;;;10.10;99.90;;;;;;4947515;28;37488;-74
2022/12/29 09:57:54;;;;;;;21.30;4.83;;;10.10;99.90;;;;;;4932986;28;37524;-74
2022/12/29 10:00:28;;;;;;;21.40;4.30;;;10.10;99.90;;;;;;4937734;28;36908;-73
2022/12/29 10:03:13;;;;;;;28.63;4.60;;;10.10;99.90;;;;;;4921489;28;37507;-73
2022/12/29 10:06:05;;;;;;;30.37;4.93;;;10.10;99.90;;;;;;4936718;28;48790;-73
2022/12/29 10:08:39;;;;;;;26.43;4.80;;;10.10;99.90;;;;;;4939514;28;47787;-73
2022/12/29 10:11:35;;;;;;;28.30;5.27;;;10.10;99.90;;;;;;4938111;28;37787;-73
2022/12/29 10:14:38;;;;;;;32.03;4.87;;;10.20;99.90;;;;;;4926519;28;40607;-74
2022/12/29 10:17:10;;;;;;;42.88;5.78;;;10.20;99.90;;;;;;4942543;28;48597;-73
2022/12/29 10:19:42;;;;;;;27.45;4.47;;;10.30;99.90;;;;;;4937263;28;37372;-74
2022/12/29 10:22:28;;;;;;;32.73;5.13;;;10.30;99.90;;;;;;4939599;28;38069;-73
2022/12/29 10:24:56;;;;;;;38.17;5.83;;;10.30;99.90;;;;;;4935804;28;38643;-73
2022/12/29 10:27:24;;;;;;;33.20;6.27;;;10.40;99.90;;;;;;4924117;28;37899;-74
2022/12/29 10:29:59;;;;;;;43.27;6.03;;;10.50;99.90;;;;;;4940227;28;38460;-74
2022/12/29 10:32:38;;;;;;;42.10;6.87;;;10.50;99.90;;;;;;4939491;28;38742;-73
2022/12/29 10:35:15;;;;;;;32.63;4.90;;;10.40;99.90;;;;;;4927277;28;38932;-74
2022/12/29 10:38:04;;;;;;;41.30;6.47;;;10.40;99.90;;;;;;4931898;28;47053;-74
2022/12/29 10:41:01;;;;;;;30.83;5.67;;;10.30;99.90;;;;;;4933161;28;47113;-74
2022/12/29 10:43:44;;;;;;;40.53;6.70;;;10.30;99.90;;;;;;4917771;28;35967;-74
2022/12/29 10:46:15;;;;;;;41.35;6.68;;;10.30;99.90;;;;;;4944105;28;39617;-74
2022/12/29 10:48:45;;;;;;;50.80;6.53;;;10.30;99.90;;;;;;4931173;28;38160;-73
2022/12/29 10:51:20;;;;;;;40.40;6.00;;;10.40;99.90;;;;;;4934822;28;37727;-74
2022/12/29 10:53:53;;;;;;;48.23;6.17;;;10.50;99.90;;;;;;4949954;28;37911;-74
2022/12/29 10:56:27;;;;;;;46.53;6.23;;;10.60;99.90;;;;;;4934099;28;37800;-74
2022/12/29 10:58:56;;;;;;;52.40;8.27;;;10.70;99.90;;;;;;4949460;28;39263;-74
2022/12/29 11:01:31;;;;;;;38.23;6.37;;;10.70;99.90;;;;;;4950208;28;39015;-74
2022/12/29 11:04:35;;;;;;;34.73;5.50;;;10.70;99.90;;;;;;4956992;28;36057;-74
2022/12/29 11:07:03;;;;;;;37.57;5.57;;;10.80;99.90;;;;;;4953671;28;47333;-75
2022/12/29 11:09:32;;;;;;;32.73;5.40;;;10.80;99.90;;;;;;4947769;28;48791;-75
2022/12/29 11:11:58;;;;;;;39.13;5.57;;;10.90;99.90;;;;;;4949656;28;37410;-74
2022/12/29 11:14:30;;;;;;;37.53;6.80;;;11.00;99.90;;;;;;4935468;28;36238;-74
2022/12/29 11:16:58;;;;;;;28.20;5.23;;;11.10;99.90;;;;;;4936585;28;37256;-74
2022/12/29 11:19:28;;;;;;;29.03;6.17;;;11.20;99.90;;;;;;4919437;28;37426;-74
2022/12/29 11:21:54;;;;;;;26.67;5.03;;;11.10;99.90;;;;;;4920147;28;38412;-76
2022/12/29 11:24:28;;;;;;;31.00;5.00;;;11.10;99.90;;;;;;4924632;28;36209;-76
2022/12/29 11:27:09;;;;;;;33.07;5.40;;;11.10;99.90;;;;;;4922466;28;38863;-75
2022/12/29 11:29:41;;;;;;;33.73;5.47;;;11.20;99.90;;;;;;4920167;28;47480;-75
2022/12/29 11:32:29;;;;;;;36.38;4.78;;;11.20;99.90;;;;;;4937295;28;38566;-75
2022/12/29 11:34:59;;;;;;;36.03;5.03;;;11.30;99.90;;;;;;4923631;28;36506;-75
2022/12/29 11:37:38;;;;;;;25.47;4.67;;;11.40;99.90;;;;;;4938319;28;37901;-75
2022/12/29 11:40:19;;;;;;;30.17;4.57;;;11.40;99.90;;;;;;4942670;28;39333;-76
2022/12/29 11:42:52;;;;;;;29.77;5.43;;;11.30;99.90;;;;;;4914784;28;47582;-76
2022/12/29 11:45:25;;;;;;;;;;;11.30;99.90;;;;;;4927121;28;37010;-76
2022/12/29 11:47:58;;;;;;;24.70;4.40;;;11.40;99.90;;;;;;4930451;28;40622;-75
2022/12/29 11:50:30;;;;;;;31.40;4.30;;;11.30;99.90;;;;;;4942901;28;38838;-75
2022/12/29 11:53:13;;;;;;;;;;;11.20;99.90;;;;;;4930221;28;37801;-74
2022/12/29 11:55:39;;;;;;;28.17;3.97;;;11.20;99.90;;;;;;4938529;28;47372;-76
2022/12/29 11:58:06;;;;;;;23.07;4.40;;;11.30;99.90;;;;;;4941730;28;38473;-76
2022/12/29 12:00:35;;;;;;;24.97;3.63;;;11.30;99.90;;;;;;4944071;28;37874;-75
2022/12/29 12:03:16;;;;;;;27.00;3.97;;;11.30;99.90;;;;;;4942744;28;38283;-75
2022/12/29 12:05:52;;;;;;;26.57;3.10;;;11.20;99.90;;;;;;4943832;28;48693;-75
2022/12/29 12:08:35;;;;;;;18.93;3.47;;;11.20;99.90;;;;;;4932502;28;38347;-75
2022/12/29 12:11:13;;;;;;;26.33;4.20;;;11.20;99.90;;;;;;4933000;28;37679;-76
2022/12/29 12:13:55;;;;;;;28.90;4.00;;;11.20;99.90;;;;;;4946629;28;48559;-75
2022/12/29 12:16:28;;;;;;;27.30;4.18;;;11.20;99.90;;;;;;4936091;28;37644;-76
2022/12/29 12:19:00;;;;;;;24.95;3.55;;;11.20;99.90;;;;;;4947704;28;38559;-75
2022/12/29 12:21:45;;;;;;;22.77;3.92;;;11.20;99.90;;;;;;4927992;28;38441;-76
2022/12/29 12:24:27;;;;;;;24.60;3.90;;;11.30;99.90;;;;;;4927401;28;38435;-77
2022/12/29 12:27:13;;;;;;;23.43;3.90;;;11.30;99.90;;;;;;4943956;28;37974;-75
2022/12/29 12:29:42;;;;;;;27.17;4.37;;;11.40;99.90;;;;;;4932286;28;48604;-76
2022/12/29 12:32:23;;;;;;;26.00;3.83;;;11.40;99.90;;;;;;4938132;28;37226;-76
2022/12/29 12:34:50;;;;;;;20.90;3.87;;;11.40;99.90;;;;;;4940613;28;39408;-76
2022/12/29 12:37:53;;;;;;;19.53;3.47;;;11.40;99.90;;;;;;4927711;28;37660;-76
2022/12/29 12:40:35;;;;;;;24.95;3.65;;;11.40;99.90;;;;;;4942833;28;38801;-76
2022/12/29 12:43:48;;;;;;;18.48;3.58;;;11.40;99.90;;;;;;4942751;28;39780;-78
2022/12/29 12:46:23;;;;;;;;;;;11.40;99.90;;;;;;4873375;29;48285;-78
2022/12/29 12:49:24;;;;;;;22.30;4.90;;;11.40;99.90;;;;;;4940290;28;37722;-75
2022/12/29 12:52:25;;;;;;;30.70;12.37;;;11.40;99.90;;;;;;4910290;28;47487;-76
2022/12/29 12:55:19;;;;;;;25.20;4.97;;;11.40;99.90;;;;;;4926059;28;48816;-76
2022/12/29 12:58:22;;;;;;;20.63;3.87;;;11.40;99.90;;;;;;4943686;28;48742;-77
2022/12/29 13:01:29;;;;;;;24.70;3.50;;;11.40;99.90;;;;;;4946131;28;50208;-77
2022/12/29 13:03:58;;;;;;;26.00;4.03;;;11.30;99.90;;;;;;4947742;28;48545;-75
2022/12/29 13:06:39;;;;;;;19.90;3.70;;;11.30;99.90;;;;;;4926515;28;38183;-78
2022/12/29 13:09:35;;;;;;;16.07;3.37;;;11.30;99.90;;;;;;4926062;28;37226;-78
2022/12/29 13:12:17;;;;;;;20.73;3.87;;;11.10;99.90;;;;;;4952966;28;37059;-77
2022/12/29 13:15:12;;;;;;;18.00;3.20;;;11.10;99.90;;;;;;4938480;28;46670;-76
2022/12/29 13:18:11;;;;;;;14.03;2.33;;;10.70;99.90;;;;;;4929080;28;47176;-75
2022/12/29 13:21:01;;;;;;;10.60;2.10;;;10.30;99.90;;;;;;4950015;28;47466;-74
2022/12/29 13:23:36;;;;;;;12.70;1.83;;;10.10;99.90;;;;;;4951397;28;38173;-76
2022/12/29 13:26:20;;;;;;;10.07;2.20;;;10.00;99.90;;;;;;4943956;28;39398;-75
2022/12/29 13:29:20;;;;;;;13.43;2.57;;;10.00;99.90;;;;;;4920170;28;48803;-75
2022/12/29 13:31:58;;;;;;;10.57;2.03;;;9.90;99.90;;;;;;4938872;28;48298;-74
2022/12/29 13:34:49;;;;;;;10.20;1.80;;;9.90;99.90;;;;;;4942794;28;38058;-77
2022/12/29 13:37:20;;;;;;;7.90;2.17;;;9.80;99.90;;;;;;4933093;28;37728;-76